aviador You're here:

LJLJ Decoded Metar

LJUBLIANA in SLOVENIA
Report Time2018-07-21 08:00:00
UTC Time2018-07-21 08:10:02
Flight Rules vfr VFR
Wind310° at 04 kt
W.Decomp.*RWY 30: 4.0 kt HW 0.6 kt RCW
W.Rank310° ranks 14
Current wind is above 310° avg. (3.8)
Visibility9999 m
Phenomena:N/A
Clouds:Few 060 Hf
Scattered 220 Hf
Expected CloudBase > 2,400 ft AGL from Temp-Dew spread
CeilingNone
Temp22°C (ISA +10)
Dew Point16°C (69% RH)
QNH1013 hPa
Density Alt2,615 ft
Elevation1,263 ft
Report Wrong Elevation
Raw Report
METAR LJLJ 210800Z 31004KT 240V360 9999 FEW060 SCT220 22/16 Q1013 NOSIG=

Extra information for LJLJ:More info

Metar Taf Metar & Taf Last 4 Metars F.Rules Stats Wind Profile Meteogram Temp Stats Airport Information Weather charts Add Link Nearby VenuesMetar ALERT Operation Metar Decoded Social comments

Webcam at LJLJ